BOX4214 EDDP-EDDS
Flight info
| Callsign | BOX4214 |
|---|---|
| Flight time | 0h 44m |
| Altitude | 26000 |
| Route | NEVKO2S NEVKO Q243 BAMKI/N0416F240 Z94 GORKO T726 TOSTU/N0409F230 T726 NOSBU NOSBU1E |
| Aircraft | B77L/H-SDE1E2E3FGHIJ2J3J4J5M1RWXY/LB1D1 |
Departure
| Time | 2026-05-04 14:06 |
|---|---|
| Airport | Leipzig/Halle Airport (EDDP) |
Arrival
| Time | 2026-05-04 14:50 |
|---|---|
| Airport | Stuttgart Airport (EDDS) |
| Time | Latitude | Longitude | Altitude | Speed | Heading |
|---|---|---|---|---|---|
| 2026-05-04 13:32 | 51.40935 | 12.24330 | 472 ft | 0 kts | 85° |
| 2026-05-04 13:58 | 51.40918 | 12.24250 | 471 ft | 4 kts | 28° |
| 2026-05-04 13:58 | 51.40911 | 12.24244 | 471 ft | 4 kts | 18° |
| 2026-05-04 13:59 | 51.40857 | 12.24237 | 470 ft | 1 kts | 356° |
| 2026-05-04 14:01 | 51.40896 | 12.24232 | 471 ft | 11 kts | 355° |
| 2026-05-04 14:02 | 51.40974 | 12.24223 | 473 ft | 11 kts | 356° |
| 2026-05-04 14:02 | 51.41052 | 12.24215 | 475 ft | 11 kts | 1° |
| 2026-05-04 14:02 | 51.41083 | 12.24317 | 475 ft | 12 kts | 86° |
| 2026-05-04 14:02 | 51.41090 | 12.24475 | 472 ft | 17 kts | 85° |
| 2026-05-04 14:03 | 51.41094 | 12.24540 | 474 ft | 17 kts | 85° |
| 2026-05-04 14:03 | 51.41115 | 12.25028 | 472 ft | 18 kts | 86° |
| 2026-05-04 14:03 | 51.41125 | 12.25225 | 476 ft | 18 kts | 85° |
| 2026-05-04 14:04 | 51.41154 | 12.25598 | 482 ft | 12 kts | 51° |
| 2026-05-04 14:04 | 51.41234 | 12.25622 | 483 ft | 13 kts | 358° |
| 2026-05-04 14:04 | 51.41325 | 12.25613 | 484 ft | 13 kts | 353° |
| 2026-05-04 14:05 | 51.41391 | 12.25388 | 479 ft | 38 kts | 265° |
| 2026-05-04 14:05 | 51.41350 | 12.24475 | 477 ft | 123 kts | 265° |
| 2026-05-04 14:05 | 51.41265 | 12.22730 | 524 ft | 186 kts | 265° |
| 2026-05-04 14:06 | 51.41145 | 12.20207 | 1644 ft | 187 kts | 266° |
| 2026-05-04 14:06 | 51.41067 | 12.18130 | 2644 ft | 188 kts | 266° |
| 2026-05-04 14:06 | 51.40979 | 12.15984 | 3411 ft | 205 kts | 265° |
| 2026-05-04 14:06 | 51.40856 | 12.13531 | 3742 ft | 240 kts | 265° |
| 2026-05-04 14:07 | 51.40712 | 12.10705 | 4332 ft | 262 kts | 265° |
| 2026-05-04 14:07 | 51.40564 | 12.07798 | 5481 ft | 263 kts | 264° |
| 2026-05-04 14:07 | 51.40398 | 12.04842 | 6450 ft | 269 kts | 264° |
| 2026-05-04 14:07 | 51.40265 | 12.02872 | 6899 ft | 269 kts | 263° |
| 2026-05-04 14:08 | 51.40043 | 11.99854 | 7367 ft | 280 kts | 263° |
| 2026-05-04 14:08 | 51.39843 | 11.96797 | 8570 ft | 273 kts | 264° |
| 2026-05-04 14:08 | 51.39611 | 11.93740 | 9480 ft | 278 kts | 254° |
| 2026-05-04 14:08 | 51.38630 | 11.91015 | 10270 ft | 288 kts | 223° |
| 2026-05-04 14:09 | 51.34888 | 11.88107 | 11655 ft | 328 kts | 201° |
| 2026-05-04 14:09 | 51.32692 | 11.86613 | 12033 ft | 358 kts | 207° |
| 2026-05-04 14:10 | 51.28233 | 11.82595 | 14021 ft | 376 kts | 211° |
| 2026-05-04 14:10 | 51.25971 | 11.80461 | 15228 ft | 379 kts | 212° |
| 2026-05-04 14:10 | 51.23763 | 11.78109 | 16306 ft | 384 kts | 217° |
| 2026-05-04 14:10 | 51.21629 | 11.75466 | 17299 ft | 391 kts | 219° |
| 2026-05-04 14:11 | 51.19506 | 11.72714 | 18315 ft | 396 kts | 220° |
| 2026-05-04 14:11 | 51.15171 | 11.67117 | 20229 ft | 407 kts | 219° |
| 2026-05-04 14:11 | 51.12940 | 11.64287 | 21104 ft | 413 kts | 219° |
| 2026-05-04 14:12 | 51.10705 | 11.61481 | 21941 ft | 418 kts | 219° |
| 2026-05-04 14:12 | 51.08405 | 11.58612 | 22806 ft | 422 kts | 218° |
| 2026-05-04 14:12 | 51.03794 | 11.52894 | 24979 ft | 417 kts | 218° |
| 2026-05-04 14:13 | 51.01497 | 11.50050 | 25758 ft | 417 kts | 218° |
| 2026-05-04 14:13 | 50.99213 | 11.47227 | 26005 ft | 416 kts | 218° |
| 2026-05-04 14:13 | 50.96930 | 11.44406 | 25986 ft | 416 kts | 218° |
| 2026-05-04 14:13 | 50.94644 | 11.41585 | 25992 ft | 415 kts | 218° |
| 2026-05-04 14:14 | 50.92369 | 11.38780 | 25992 ft | 415 kts | 218° |
| 2026-05-04 14:14 | 50.87819 | 11.33182 | 26000 ft | 414 kts | 218° |
| 2026-05-04 14:14 | 50.85577 | 11.30317 | 25990 ft | 412 kts | 224° |
| 2026-05-04 14:15 | 50.82033 | 11.23250 | 25992 ft | 411 kts | 234° |
| 2026-05-04 14:15 | 50.78646 | 11.16012 | 25994 ft | 413 kts | 233° |
| 2026-05-04 14:16 | 50.75140 | 11.08808 | 25999 ft | 414 kts | 232° |
| 2026-05-04 14:16 | 50.73353 | 11.05244 | 25993 ft | 415 kts | 229° |
| 2026-05-04 14:17 | 50.69142 | 10.99002 | 25998 ft | 416 kts | 218° |
| 2026-05-04 14:17 | 50.66777 | 10.96374 | 25993 ft | 416 kts | 215° |
| 2026-05-04 14:17 | 50.62010 | 10.91221 | 25986 ft | 415 kts | 215° |
| 2026-05-04 14:18 | 50.59632 | 10.88633 | 25991 ft | 415 kts | 215° |
| 2026-05-04 14:18 | 50.54891 | 10.83445 | 25994 ft | 415 kts | 216° |
| 2026-05-04 14:19 | 50.50137 | 10.78270 | 25989 ft | 416 kts | 215° |
| 2026-05-04 14:19 | 50.47756 | 10.75697 | 25987 ft | 416 kts | 215° |
| 2026-05-04 14:19 | 50.45407 | 10.73160 | 25992 ft | 415 kts | 215° |
| 2026-05-04 14:19 | 50.42993 | 10.70555 | 25982 ft | 415 kts | 215° |
| 2026-05-04 14:20 | 50.40647 | 10.68010 | 25984 ft | 415 kts | 215° |
| 2026-05-04 14:20 | 50.38278 | 10.65433 | 25990 ft | 415 kts | 215° |
| 2026-05-04 14:20 | 50.35903 | 10.62856 | 25993 ft | 415 kts | 215° |
| 2026-05-04 14:21 | 50.31144 | 10.57729 | 25986 ft | 415 kts | 215° |
| 2026-05-04 14:21 | 50.28756 | 10.55179 | 25983 ft | 415 kts | 215° |
| 2026-05-04 14:21 | 50.26368 | 10.52633 | 25989 ft | 415 kts | 215° |
| 2026-05-04 14:21 | 50.24083 | 10.49896 | 25976 ft | 414 kts | 223° |
| 2026-05-04 14:22 | 50.22081 | 10.46669 | 25987 ft | 414 kts | 230° |
| 2026-05-04 14:22 | 50.20324 | 10.43115 | 25987 ft | 413 kts | 237° |
| 2026-05-04 14:22 | 50.18843 | 10.39274 | 25978 ft | 414 kts | 239° |
| 2026-05-04 14:22 | 50.17372 | 10.35414 | 25984 ft | 414 kts | 239° |
| 2026-05-04 14:23 | 50.14370 | 10.27739 | 25992 ft | 414 kts | 238° |
| 2026-05-04 14:23 | 50.12861 | 10.23922 | 25992 ft | 414 kts | 238° |
| 2026-05-04 14:23 | 50.11366 | 10.20147 | 25992 ft | 415 kts | 238° |
| 2026-05-04 14:24 | 50.09848 | 10.16319 | 25990 ft | 415 kts | 238° |
| 2026-05-04 14:24 | 50.08188 | 10.12656 | 25999 ft | 415 kts | 229° |
| 2026-05-04 14:24 | 50.06129 | 10.09523 | 26002 ft | 415 kts | 220° |
| 2026-05-04 14:24 | 50.03778 | 10.06911 | 25981 ft | 416 kts | 211° |
| 2026-05-04 14:25 | 50.01173 | 10.05050 | 25939 ft | 409 kts | 200° |
| 2026-05-04 14:25 | 49.95748 | 10.03328 | 25806 ft | 389 kts | 186° |
| 2026-05-04 14:25 | 49.93071 | 10.03004 | 25737 ft | 381 kts | 186° |
| 2026-05-04 14:26 | 49.90455 | 10.02698 | 25679 ft | 373 kts | 186° |
| 2026-05-04 14:26 | 49.87910 | 10.02392 | 25602 ft | 360 kts | 186° |
| 2026-05-04 14:26 | 49.85456 | 10.02091 | 25361 ft | 349 kts | 186° |
| 2026-05-04 14:26 | 49.83022 | 10.01784 | 24885 ft | 355 kts | 186° |
| 2026-05-04 14:27 | 49.80520 | 10.01459 | 24123 ft | 372 kts | 186° |
| 2026-05-04 14:27 | 49.77808 | 10.01103 | 23730 ft | 407 kts | 186° |
| 2026-05-04 14:27 | 49.74950 | 10.00730 | 23162 ft | 412 kts | 186° |
| 2026-05-04 14:27 | 49.72106 | 10.00362 | 22631 ft | 410 kts | 186° |
| 2026-05-04 14:28 | 49.69274 | 9.99994 | 22156 ft | 420 kts | 186° |
| 2026-05-04 14:28 | 49.66327 | 9.99608 | 21677 ft | 429 kts | 186° |
| 2026-05-04 14:28 | 49.63319 | 9.99217 | 21162 ft | 427 kts | 186° |
| 2026-05-04 14:28 | 49.60405 | 9.98838 | 20678 ft | 424 kts | 186° |
| 2026-05-04 14:29 | 49.54559 | 9.98079 | 19681 ft | 419 kts | 186° |
| 2026-05-04 14:29 | 49.48786 | 9.97332 | 18679 ft | 414 kts | 186° |
| 2026-05-04 14:30 | 49.45924 | 9.96961 | 18179 ft | 411 kts | 186° |
| 2026-05-04 14:30 | 49.43083 | 9.96594 | 17679 ft | 408 kts | 186° |
| 2026-05-04 14:30 | 49.37469 | 9.95871 | 16689 ft | 402 kts | 186° |
| 2026-05-04 14:31 | 49.34684 | 9.95510 | 16179 ft | 400 kts | 186° |
| 2026-05-04 14:31 | 49.29177 | 9.94798 | 15180 ft | 394 kts | 186° |
| 2026-05-04 14:32 | 49.23749 | 9.94107 | 14185 ft | 389 kts | 185° |
| 2026-05-04 14:32 | 49.21066 | 9.93715 | 13677 ft | 379 kts | 190° |
| 2026-05-04 14:32 | 49.18631 | 9.92420 | 13155 ft | 377 kts | 210° |
| 2026-05-04 14:32 | 49.16607 | 9.89903 | 12664 ft | 376 kts | 227° |
| 2026-05-04 14:33 | 49.15079 | 9.86679 | 12210 ft | 375 kts | 243° |
| 2026-05-04 14:33 | 49.14108 | 9.82960 | 12037 ft | 382 kts | 250° |
| 2026-05-04 14:33 | 49.13164 | 9.79213 | 11984 ft | 373 kts | 245° |
| 2026-05-04 14:33 | 49.11966 | 9.75812 | 11971 ft | 354 kts | 237° |
| 2026-05-04 14:34 | 49.10606 | 9.72800 | 11915 ft | 336 kts | 234° |
| 2026-05-04 14:34 | 49.09302 | 9.69931 | 11818 ft | 322 kts | 235° |
| 2026-05-04 14:34 | 49.08077 | 9.67215 | 11614 ft | 300 kts | 235° |
| 2026-05-04 14:34 | 49.06922 | 9.64647 | 11134 ft | 289 kts | 235° |
| 2026-05-04 14:35 | 49.05785 | 9.62120 | 10535 ft | 291 kts | 235° |
| 2026-05-04 14:35 | 49.04636 | 9.59576 | 10111 ft | 290 kts | 235° |
| 2026-05-04 14:35 | 49.03500 | 9.57055 | 9754 ft | 288 kts | 235° |
| 2026-05-04 14:35 | 49.02368 | 9.54542 | 9335 ft | 287 kts | 235° |
| 2026-05-04 14:36 | 49.01238 | 9.52035 | 8946 ft | 286 kts | 235° |
| 2026-05-04 14:36 | 49.00118 | 9.49550 | 8708 ft | 284 kts | 235° |
| 2026-05-04 14:36 | 48.98998 | 9.47076 | 8448 ft | 283 kts | 235° |
| 2026-05-04 14:36 | 48.97880 | 9.44604 | 8200 ft | 285 kts | 235° |
| 2026-05-04 14:37 | 48.96753 | 9.42108 | 7964 ft | 286 kts | 235° |
| 2026-05-04 14:37 | 48.95627 | 9.39619 | 7716 ft | 286 kts | 235° |
| 2026-05-04 14:37 | 48.94499 | 9.37129 | 7464 ft | 285 kts | 235° |
| 2026-05-04 14:37 | 48.93374 | 9.34648 | 7222 ft | 285 kts | 235° |
| 2026-05-04 14:38 | 48.92255 | 9.32183 | 7059 ft | 280 kts | 235° |
| 2026-05-04 14:38 | 48.91163 | 9.29778 | 6996 ft | 275 kts | 235° |
| 2026-05-04 14:38 | 48.90069 | 9.27371 | 6983 ft | 278 kts | 235° |
| 2026-05-04 14:38 | 48.88961 | 9.24940 | 6979 ft | 281 kts | 235° |
| 2026-05-04 14:39 | 48.87845 | 9.22488 | 6976 ft | 282 kts | 235° |
| 2026-05-04 14:39 | 48.86734 | 9.20053 | 6968 ft | 281 kts | 235° |
| 2026-05-04 14:39 | 48.85623 | 9.17618 | 6971 ft | 279 kts | 235° |
| 2026-05-04 14:40 | 48.83423 | 9.12805 | 6965 ft | 279 kts | 235° |
| 2026-05-04 14:40 | 48.82319 | 9.10392 | 6971 ft | 279 kts | 235° |
| 2026-05-04 14:40 | 48.81199 | 9.07943 | 6756 ft | 286 kts | 235° |
| 2026-05-04 14:40 | 48.80098 | 9.05543 | 6281 ft | 291 kts | 235° |
| 2026-05-04 14:41 | 48.78941 | 9.03019 | 5782 ft | 292 kts | 235° |
| 2026-05-04 14:41 | 48.77782 | 9.00497 | 5292 ft | 290 kts | 235° |
| 2026-05-04 14:41 | 48.75599 | 8.95748 | 4509 ft | 269 kts | 235° |
| 2026-05-04 14:42 | 48.73449 | 8.91087 | 4097 ft | 267 kts | 235° |
| 2026-05-04 14:42 | 48.72395 | 8.88798 | 4036 ft | 264 kts | 235° |
| 2026-05-04 14:42 | 48.71477 | 8.86373 | 4016 ft | 267 kts | 246° |
| 2026-05-04 14:43 | 48.70818 | 8.83727 | 4000 ft | 270 kts | 252° |
| 2026-05-04 14:43 | 48.70090 | 8.81179 | 3992 ft | 258 kts | 233° |
| 2026-05-04 14:43 | 48.68754 | 8.79517 | 3986 ft | 245 kts | 202° |
| 2026-05-04 14:43 | 48.67124 | 8.79148 | 3999 ft | 236 kts | 172° |
| 2026-05-04 14:44 | 48.65551 | 8.79770 | 4017 ft | 236 kts | 153° |
| 2026-05-04 14:44 | 48.64320 | 8.81374 | 3991 ft | 234 kts | 121° |
| 2026-05-04 14:44 | 48.63771 | 8.83517 | 3998 ft | 221 kts | 104° |
| 2026-05-04 14:44 | 48.63404 | 8.85742 | 4026 ft | 213 kts | 104° |
| 2026-05-04 14:45 | 48.63053 | 8.87874 | 3996 ft | 203 kts | 103° |
| 2026-05-04 14:45 | 48.62995 | 8.89957 | 3996 ft | 198 kts | 79° |
| 2026-05-04 14:45 | 48.63297 | 8.92007 | 4008 ft | 201 kts | 76° |
| 2026-05-04 14:45 | 48.63650 | 8.94048 | 4005 ft | 199 kts | 75° |
| 2026-05-04 14:46 | 48.64026 | 8.96069 | 3998 ft | 200 kts | 74° |
| 2026-05-04 14:46 | 48.64407 | 8.98087 | 4009 ft | 200 kts | 73° |
| 2026-05-04 14:46 | 48.64790 | 9.00102 | 3999 ft | 200 kts | 74° |
| 2026-05-04 14:46 | 48.65184 | 9.02162 | 3723 ft | 206 kts | 74° |
| 2026-05-04 14:47 | 48.65574 | 9.04214 | 3451 ft | 200 kts | 74° |
| 2026-05-04 14:47 | 48.65955 | 9.06217 | 3194 ft | 196 kts | 74° |
| 2026-05-04 14:47 | 48.66323 | 9.08155 | 2953 ft | 185 kts | 74° |
| 2026-05-04 14:47 | 48.66663 | 9.09952 | 2696 ft | 171 kts | 74° |
| 2026-05-04 14:48 | 48.66978 | 9.11619 | 2427 ft | 158 kts | 73° |
| 2026-05-04 14:48 | 48.67283 | 9.13186 | 2318 ft | 156 kts | 73° |
| 2026-05-04 14:48 | 48.67596 | 9.14798 | 2120 ft | 161 kts | 73° |
| 2026-05-04 14:48 | 48.67894 | 9.16413 | 1825 ft | 159 kts | 73° |
| 2026-05-04 14:49 | 48.68191 | 9.17989 | 1647 ft | 154 kts | 73° |
| 2026-05-04 14:49 | 48.68490 | 9.19580 | 1434 ft | 158 kts | 73° |
| 2026-05-04 14:49 | 48.68788 | 9.21146 | 1276 ft | 146 kts | 73° |
| 2026-05-04 14:49 | 48.69037 | 9.22443 | 1233 ft | 105 kts | 74° |
| 2026-05-04 14:50 | 48.69180 | 9.23202 | 1218 ft | 49 kts | 73° |
| 2026-05-04 14:50 | 48.69313 | 9.23588 | 1215 ft | 33 kts | 44° |
| 2026-05-04 14:50 | 48.69424 | 9.23732 | 1253 ft | 12 kts | 24° |
| 2026-05-04 14:50 | 48.69472 | 9.23734 | 1263 ft | 7 kts | 346° |
| 2026-05-04 14:51 | 48.69515 | 9.23690 | 1265 ft | 9 kts | 304° |
| 2026-05-04 14:51 | 48.69514 | 9.23592 | 1255 ft | 10 kts | 253° |
| 2026-05-04 14:51 | 48.69485 | 9.23448 | 1242 ft | 19 kts | 254° |
| 2026-05-04 14:51 | 48.69450 | 9.23269 | 1232 ft | 14 kts | 253° |
| 2026-05-04 14:52 | 48.69402 | 9.23160 | 1228 ft | 10 kts | 213° |
| 2026-05-04 14:52 | 48.69338 | 9.23091 | 1226 ft | 12 kts | 233° |
| 2026-05-04 14:52 | 48.69306 | 9.22956 | 1228 ft | 15 kts | 255° |
| 2026-05-04 14:52 | 48.69277 | 9.22799 | 1231 ft | 16 kts | 254° |
| 2026-05-04 14:53 | 48.69258 | 9.22694 | 1234 ft | 16 kts | 253° |
| 2026-05-04 14:53 | 48.69218 | 9.22486 | 1241 ft | 16 kts | 254° |
| 2026-05-04 14:53 | 48.69188 | 9.22331 | 1243 ft | 16 kts | 253° |
| 2026-05-04 14:53 | 48.69158 | 9.22177 | 1251 ft | 16 kts | 253° |
| 2026-05-04 14:54 | 48.69139 | 9.22073 | 1254 ft | 16 kts | 254° |
| 2026-05-04 14:54 | 48.69110 | 9.21916 | 1262 ft | 16 kts | 254° |
| 2026-05-04 14:54 | 48.69081 | 9.21758 | 1263 ft | 16 kts | 254° |
| 2026-05-04 14:54 | 48.69051 | 9.21601 | 1263 ft | 16 kts | 254° |
| 2026-05-04 14:55 | 48.69022 | 9.21444 | 1272 ft | 16 kts | 254° |
| 2026-05-04 14:55 | 48.68990 | 9.21281 | 1270 ft | 17 kts | 253° |
| 2026-05-04 14:55 | 48.68956 | 9.21099 | 1270 ft | 19 kts | 253° |
| 2026-05-04 14:55 | 48.68918 | 9.20906 | 1282 ft | 19 kts | 254° |
| 2026-05-04 14:56 | 48.68882 | 9.20713 | 1279 ft | 19 kts | 254° |
| 2026-05-04 14:56 | 48.68845 | 9.20519 | 1288 ft | 19 kts | 254° |
| 2026-05-04 14:56 | 48.68808 | 9.20326 | 1288 ft | 19 kts | 253° |
| 2026-05-04 14:56 | 48.68787 | 9.20212 | 1291 ft | 5 kts | 254° |
| 2026-05-04 14:57 | 48.68783 | 9.20194 | 1291 ft | 1 kts | 254° |
| 2026-05-04 14:57 | 48.68779 | 9.20171 | 1292 ft | 6 kts | 254° |
| 2026-05-04 14:57 | 48.68757 | 9.20052 | 1295 ft | 14 kts | 254° |
| 2026-05-04 14:57 | 48.68707 | 9.19977 | 1295 ft | 11 kts | 178° |
| 2026-05-04 14:58 | 48.68606 | 9.20020 | 1289 ft | 20 kts | 164° |
| 2026-05-04 14:58 | 48.68468 | 9.20076 | 1291 ft | 21 kts | 164° |
| 2026-05-04 14:58 | 48.68362 | 9.20140 | 1293 ft | 15 kts | 123° |
| 2026-05-04 14:58 | 48.68382 | 9.20284 | 1288 ft | 14 kts | 71° |
| 2026-05-04 14:59 | 48.68409 | 9.20427 | 1288 ft | 14 kts | 75° |
| 2026-05-04 14:59 | 48.68434 | 9.20554 | 1282 ft | 9 kts | 73° |
| 2026-05-04 14:59 | 48.68384 | 9.20656 | 1286 ft | 3 kts | 165° |
| 2026-05-04 15:00 | 48.68373 | 9.20660 | 1283 ft | 2 kts | 165° |
| 2026-05-04 15:00 | 48.68370 | 9.20661 | 1284 ft | 0 kts | 165° |